Terminal Aerodrome Forecast
Issued by NWS

Home | Current Version | Previous Version | Text Only | Print | Product List | Glossary On
Versions: 1 2 3 4 5 6 7 8 9 10 11 12
000
FTUS46 KOTX 300539
TAFMWH
TAF
KMWH 300539Z 3006/3106 02004KT P6SM FEW250
     FM301200 03008KT P6SM SCT250
     FM301800 12009KT P6SM BKN250
     FM310300 24016G28KT P6SM VCTS SCT100CB BKN150=

USA.gov is the U.S. government's official web portal to all federal, state and local government web resources and services.